createdAt,value
2019-04-12T00:02:23.837Z,6.20
2019-04-12T00:05:12.278Z,6.10
2019-04-12T00:08:01.199Z,6.20
2019-04-12T00:10:49.535Z,6.10
2019-04-12T00:13:37.507Z,6.10
2019-04-12T00:16:25.107Z,6.10
2019-04-12T00:19:13.933Z,6.10
2019-04-12T00:22:02.732Z,6.10
2019-04-12T00:24:50.561Z,6.10
2019-04-12T00:27:38.496Z,6.10
2019-04-12T00:30:26.375Z,6.00
2019-04-12T00:33:14.680Z,6.00
2019-04-12T00:36:02.500Z,6.00
2019-04-12T00:38:50.332Z,6.00
2019-04-12T00:41:38.085Z,5.90
2019-04-12T00:44:25.897Z,5.90
2019-04-12T00:47:15.917Z,5.90
2019-04-12T00:50:03.826Z,5.90
2019-04-12T00:52:51.964Z,5.90
2019-04-12T00:55:39.601Z,5.90
2019-04-12T00:58:27.399Z,5.90
2019-04-12T01:01:40.070Z,5.90
2019-04-12T01:04:47.281Z,5.80
2019-04-12T01:07:35.219Z,5.80
2019-04-12T01:10:23.235Z,5.80
2019-04-12T01:13:11.077Z,5.80
2019-04-12T01:16:00.086Z,5.80
2019-04-12T01:18:47.966Z,5.80
2019-04-12T01:21:37.487Z,5.70
2019-04-12T01:24:24.839Z,5.70
2019-04-12T01:27:16.591Z,5.70
2019-04-12T01:30:01.985Z,5.70
2019-04-12T01:32:49.610Z,5.70
2019-04-12T01:35:37.452Z,5.60
2019-04-12T01:38:25.326Z,5.60
2019-04-12T01:41:13.484Z,5.60
2019-04-12T01:44:01.128Z,5.60
2019-04-12T01:46:48.767Z,5.60
2019-04-12T01:49:37.000Z,5.60
2019-04-12T01:52:24.851Z,5.60
2019-04-12T01:55:12.944Z,5.70
2019-04-12T01:58:00.764Z,5.60
2019-04-12T02:00:48.666Z,5.60
2019-04-12T02:03:36.298Z,5.60
2019-04-12T02:06:24.006Z,5.60
2019-04-12T02:09:11.632Z,5.60
2019-04-12T02:11:59.755Z,5.50
2019-04-12T02:14:47.828Z,5.50
2019-04-12T02:17:35.632Z,5.50
2019-04-12T02:20:23.409Z,5.50
2019-04-12T02:23:11.206Z,5.50
2019-04-12T02:25:59.142Z,5.50
2019-04-12T02:28:53.108Z,5.50
2019-04-12T02:31:59.048Z,5.50
2019-04-12T02:34:47.589Z,5.50
2019-04-12T02:37:35.188Z,5.50
2019-04-12T02:40:23.463Z,5.40
2019-04-12T02:43:13.175Z,5.40
2019-04-12T02:46:05.776Z,5.40
2019-04-12T02:48:58.158Z,5.40
2019-04-12T02:52:07.348Z,5.40
2019-04-12T02:55:35.930Z,5.40
2019-04-12T02:58:17.249Z,5.30
2019-04-12T03:01:08.388Z,5.40
2019-04-12T03:03:56.669Z,5.40
2019-04-12T03:06:44.771Z,5.40
2019-04-12T03:09:35.659Z,5.40
2019-04-12T03:12:25.432Z,5.30
2019-04-12T03:15:13.998Z,5.30
2019-04-12T03:18:02.097Z,5.30
2019-04-12T03:20:51.123Z,5.30
2019-04-12T03:23:39.822Z,5.30
2019-04-12T03:26:28.159Z,5.20
2019-04-12T03:29:16.040Z,5.10
2019-04-12T03:32:03.979Z,5.20
2019-04-12T03:34:52.592Z,5.10
2019-04-12T03:37:39.949Z,5.10
2019-04-12T03:40:27.868Z,5.00
2019-04-12T03:43:15.887Z,5.00
2019-04-12T03:46:03.826Z,5.00
2019-04-12T03:48:51.627Z,5.00
2019-04-12T03:51:39.384Z,5.00
2019-04-12T03:54:27.268Z,5.00
2019-04-12T03:57:14.672Z,5.00
2019-04-12T04:00:02.219Z,4.90
2019-04-12T04:02:50.471Z,4.90
2019-04-12T04:05:38.480Z,4.90
2019-04-12T04:08:26.748Z,4.90
2019-04-12T04:11:14.420Z,4.80
2019-04-12T04:14:02.726Z,4.80
2019-04-12T04:17:00.355Z,4.80
2019-04-12T04:20:05.130Z,4.80
2019-04-12T04:22:58.867Z,4.80
2019-04-12T04:25:54.588Z,4.70
2019-04-12T04:28:52.487Z,4.70
2019-04-12T04:31:49.250Z,4.60
2019-04-12T04:34:37.735Z,4.60
2019-04-12T04:37:25.959Z,4.60
2019-04-12T04:40:14.448Z,4.60
2019-04-12T04:43:02.325Z,4.60
2019-04-12T04:45:50.441Z,4.60
2019-04-12T04:48:38.360Z,4.60
2019-04-12T04:51:26.475Z,4.50
2019-04-12T04:54:14.472Z,4.60
2019-04-12T04:57:03.017Z,4.50
2019-04-12T04:59:50.624Z,4.40
2019-04-12T05:02:38.459Z,4.40
2019-04-12T05:05:26.180Z,4.40
2019-04-12T05:08:14.300Z,4.40
2019-04-12T05:11:02.973Z,4.40
2019-04-12T05:13:50.954Z,4.30
2019-04-12T05:16:38.892Z,4.30
2019-04-12T05:19:26.876Z,4.30
2019-04-12T05:22:14.715Z,4.20
2019-04-12T05:25:02.435Z,4.20
2019-04-12T05:27:50.580Z,4.20
2019-04-12T05:30:38.773Z,4.20
2019-04-12T05:33:26.736Z,4.20
2019-04-12T05:36:14.685Z,4.20
2019-04-12T05:39:02.377Z,4.20
2019-04-12T05:41:50.595Z,4.20
2019-04-12T05:44:38.571Z,4.20
2019-04-12T05:47:42.355Z,4.20
2019-04-12T05:50:36.351Z,4.20
2019-04-12T05:53:23.830Z,4.30
2019-04-12T05:56:13.576Z,4.30
2019-04-12T05:59:21.824Z,4.30
2019-04-12T06:02:37.771Z,4.30
2019-04-12T06:05:28.071Z,4.30
2019-04-12T06:08:15.328Z,4.30
2019-04-12T06:11:05.991Z,4.20
2019-04-12T06:13:55.044Z,4.30
2019-04-12T06:16:43.983Z,4.20
2019-04-12T06:19:32.749Z,4.30
2019-04-12T06:22:21.468Z,4.30
2019-04-12T06:25:28.247Z,4.20
2019-04-12T06:28:16.196Z,4.20
2019-04-12T06:31:04.817Z,4.20
2019-04-12T06:33:52.656Z,4.20
2019-04-12T06:36:41.181Z,4.30
2019-04-12T06:39:29.113Z,4.30
2019-04-12T06:42:17.009Z,4.40
2019-04-12T06:45:05.185Z,4.30
2019-04-12T06:47:52.823Z,4.40
2019-04-12T06:50:49.260Z,4.40
2019-04-12T06:53:36.964Z,4.40
2019-04-12T06:56:43.999Z,4.40
2019-04-12T06:59:32.032Z,4.40
2019-04-12T07:02:24.005Z,4.50
2019-04-12T07:05:11.771Z,4.50
2019-04-12T07:07:59.621Z,4.60
2019-04-12T07:10:47.419Z,4.60
2019-04-12T07:13:35.320Z,4.50
2019-04-12T07:16:23.660Z,4.60
2019-04-12T07:19:12.111Z,4.60
2019-04-12T07:22:00.020Z,4.60
2019-04-12T07:24:48.404Z,4.60
2019-04-12T07:27:36.054Z,4.60
2019-04-12T07:30:24.039Z,4.80
2019-04-12T07:33:11.751Z,4.80
2019-04-12T07:36:01.922Z,4.80
2019-04-12T07:38:48.531Z,4.80
2019-04-12T07:41:36.384Z,4.80
2019-04-12T07:44:23.738Z,4.90
2019-04-12T07:47:11.396Z,4.90
2019-04-12T07:50:00.940Z,4.90
2019-04-12T07:52:48.968Z,4.90
2019-04-12T07:55:55.778Z,4.70
2019-04-12T07:58:52.698Z,4.80
2019-04-12T08:02:11.686Z,4.80
2019-04-12T08:05:16.743Z,4.90
2019-04-12T08:08:07.254Z,4.90
2019-04-12T08:10:55.279Z,4.90
2019-04-12T08:13:43.134Z,4.90
2019-04-12T08:16:30.835Z,4.90
2019-04-12T08:19:18.474Z,5.00
2019-04-12T08:22:06.623Z,5.10
2019-04-12T08:24:54.562Z,5.10
2019-04-12T08:27:42.643Z,5.20
2019-04-12T08:30:30.161Z,5.10
2019-04-12T08:33:17.778Z,5.20
2019-04-12T08:36:06.124Z,5.20
2019-04-12T08:38:53.914Z,5.40
2019-04-12T08:41:41.552Z,5.40
2019-04-12T08:44:29.163Z,5.50
2019-04-12T08:47:17.016Z,5.60
2019-04-12T08:50:05.322Z,5.60
2019-04-12T08:52:52.641Z,5.60
2019-04-12T08:55:40.311Z,5.60
2019-04-12T08:58:30.688Z,5.60
2019-04-12T09:01:17.784Z,5.70
2019-04-12T09:04:05.967Z,5.80
2019-04-12T09:06:53.627Z,5.90
2019-04-12T09:09:41.169Z,6.00
2019-04-12T09:12:29.272Z,6.10
2019-04-12T09:15:17.264Z,6.20
2019-04-12T09:18:05.126Z,6.20
2019-04-12T09:21:10.925Z,6.30
2019-04-12T09:24:07.517Z,6.40
2019-04-12T09:26:55.217Z,6.30
2019-04-12T09:29:43.111Z,6.40
2019-04-12T09:32:30.796Z,6.60
2019-04-12T09:35:18.608Z,6.60
2019-04-12T09:38:06.557Z,6.70
2019-04-12T09:40:56.357Z,6.90
2019-04-12T09:43:43.325Z,7.00
2019-04-12T09:46:31.013Z,7.20
2019-04-12T09:49:21.157Z,7.20
2019-04-12T09:52:08.090Z,7.30
2019-04-12T09:54:55.792Z,7.40
2019-04-12T09:57:43.512Z,7.50
2019-04-12T10:00:31.697Z,7.60
2019-04-12T10:03:19.669Z,7.70
2019-04-12T10:06:07.521Z,7.80
2019-04-12T10:08:55.208Z,7.80
2019-04-12T10:11:42.611Z,7.80
2019-04-12T10:14:30.307Z,7.70
2019-04-12T10:17:19.092Z,7.90
2019-04-12T10:20:06.900Z,7.80
2019-04-12T10:22:54.497Z,7.80
2019-04-12T10:25:42.158Z,8.00
2019-04-12T10:28:29.928Z,8.20
2019-04-12T10:31:18.331Z,8.40
2019-04-12T10:34:06.272Z,8.60
2019-04-12T10:36:53.986Z,8.40
2019-04-12T10:39:41.887Z,8.50
2019-04-12T10:42:29.609Z,8.60
2019-04-12T10:45:42.921Z,8.60
2019-04-12T10:48:48.256Z,8.70
2019-04-12T10:51:45.946Z,8.50
2019-04-12T10:55:05.002Z,8.20
2019-04-12T10:57:52.320Z,8.50
2019-04-12T11:00:43.197Z,8.90
2019-04-12T11:03:30.993Z,9.00
2019-04-12T11:06:29.699Z,9.10
2019-04-12T11:09:11.103Z,9.20
2019-04-12T11:11:58.984Z,9.20
2019-04-12T11:14:46.410Z,9.20
2019-04-12T11:17:33.755Z,9.00
2019-04-12T11:20:21.648Z,8.90
2019-04-12T11:23:09.476Z,9.00
2019-04-12T11:25:57.458Z,9.10
2019-04-12T11:28:45.508Z,9.10
2019-04-12T11:31:33.716Z,9.20
2019-04-12T11:34:21.296Z,9.30
2019-04-12T11:37:08.890Z,9.30
2019-04-12T11:39:56.303Z,9.40
2019-04-12T11:42:44.009Z,9.30
2019-04-12T11:45:31.693Z,9.40
2019-04-12T11:48:19.588Z,9.30
2019-04-12T11:51:07.063Z,9.30
2019-04-12T11:53:54.880Z,9.30
2019-04-12T11:56:42.320Z,9.40
2019-04-12T11:59:30.014Z,9.40
2019-04-12T12:02:38.236Z,9.40
2019-04-12T12:05:48.070Z,9.30
2019-04-12T12:08:54.340Z,9.10
2019-04-12T12:11:48.240Z,9.10
2019-04-12T12:14:45.820Z,9.10
2019-04-12T12:17:36.121Z,9.10
2019-04-12T12:20:23.943Z,9.00
2019-04-12T12:23:11.587Z,9.00
2019-04-12T12:25:59.408Z,9.00
2019-04-12T12:28:47.118Z,9.00
2019-04-12T12:31:35.650Z,9.10
2019-04-12T12:34:23.276Z,9.10
2019-04-12T12:37:10.676Z,9.20
2019-04-12T12:39:58.229Z,9.20
2019-04-12T12:42:46.139Z,9.30
2019-04-12T12:45:33.800Z,9.40
2019-04-12T12:48:21.639Z,9.40
2019-04-12T12:51:09.448Z,9.40
2019-04-12T12:53:57.011Z,9.30
2019-04-12T12:56:44.539Z,9.40
2019-04-12T12:59:32.376Z,9.50
2019-04-12T13:02:20.352Z,9.50
2019-04-12T13:05:08.573Z,9.40
2019-04-12T13:07:56.212Z,9.40
2019-04-12T13:10:44.076Z,9.30
2019-04-12T13:13:32.219Z,9.30
2019-04-12T13:16:19.559Z,9.30
2019-04-12T13:19:07.089Z,9.20
2019-04-12T13:21:54.592Z,9.20
2019-04-12T13:24:42.284Z,9.20
2019-04-12T13:27:29.851Z,9.10
2019-04-12T13:30:40.559Z,9.10
2019-04-12T13:33:36.663Z,9.20
2019-04-12T13:36:31.286Z,9.30
2019-04-12T13:39:44.664Z,9.30
2019-04-12T13:42:38.803Z,9.30
2019-04-12T13:45:26.934Z,9.30
2019-04-12T13:48:15.067Z,9.10
2019-04-12T13:51:02.492Z,9.10
2019-04-12T13:53:49.795Z,9.20
2019-04-12T13:56:37.579Z,9.20
2019-04-12T13:59:25.120Z,9.10
2019-04-12T14:02:12.697Z,9.10
2019-04-12T14:05:00.316Z,9.00
2019-04-12T14:07:48.520Z,9.00
2019-04-12T14:10:36.302Z,8.90
2019-04-12T14:13:24.240Z,8.80
2019-04-12T14:16:11.880Z,8.80
2019-04-12T14:18:59.971Z,9.00
2019-04-12T14:21:47.448Z,9.10
2019-04-12T14:24:35.121Z,9.20
2019-04-12T14:27:23.289Z,9.10
2019-04-12T14:30:16.387Z,9.10
2019-04-12T14:33:20.312Z,9.10
2019-04-12T14:36:18.408Z,9.10
2019-04-12T14:39:09.087Z,9.10
2019-04-12T14:41:56.703Z,9.10
2019-04-12T14:44:58.370Z,9.00
2019-04-12T14:47:47.772Z,9.00
2019-04-12T14:50:35.285Z,9.10
2019-04-12T14:53:24.349Z,9.20
2019-04-12T14:56:11.743Z,9.20
2019-04-12T14:58:59.180Z,9.20
2019-04-12T15:01:47.229Z,9.30
2019-04-12T15:04:34.755Z,9.20
2019-04-12T15:07:22.021Z,9.10
2019-04-12T15:10:09.564Z,9.20
2019-04-12T15:12:58.113Z,9.20
2019-04-12T15:15:46.296Z,9.30
2019-04-12T15:18:34.178Z,9.20
2019-04-12T15:21:21.614Z,9.10
2019-04-12T15:24:09.097Z,9.10
2019-04-12T15:26:56.685Z,9.10
2019-04-12T15:29:44.936Z,9.00
2019-04-12T15:32:32.635Z,9.00
2019-04-12T15:35:20.501Z,9.00
2019-04-12T15:38:08.368Z,9.00
2019-04-12T15:40:56.004Z,9.00
2019-04-12T15:43:44.214Z,8.90
2019-04-12T15:46:32.184Z,8.80
2019-04-12T15:49:20.518Z,8.80
2019-04-12T15:52:08.276Z,8.70
2019-04-12T15:54:55.827Z,8.70
2019-04-12T15:57:43.819Z,8.70
2019-04-12T16:00:57.000Z,8.70
2019-04-12T16:03:44.900Z,8.70
2019-04-12T16:06:33.127Z,8.70
2019-04-12T16:09:25.351Z,8.80
2019-04-12T16:12:35.902Z,8.80
2019-04-12T16:15:59.721Z,8.80
2019-04-12T16:18:50.653Z,8.80
2019-04-12T16:21:38.731Z,8.70
2019-04-12T16:24:26.705Z,8.60
2019-04-12T16:27:15.137Z,8.50
2019-04-12T16:30:22.027Z,8.40
2019-04-12T16:33:22.285Z,8.40
2019-04-12T16:36:38.229Z,8.40
2019-04-12T16:39:26.261Z,8.40
2019-04-12T16:42:14.267Z,8.40
2019-04-12T16:45:02.666Z,8.40
2019-04-12T16:47:50.628Z,8.30
2019-04-12T16:50:38.575Z,8.30
2019-04-12T16:53:26.640Z,8.20
2019-04-12T16:56:15.069Z,8.20
2019-04-12T16:59:03.096Z,8.20
2019-04-12T17:01:50.681Z,8.20
2019-04-12T17:04:38.409Z,8.10
2019-04-12T17:07:25.771Z,8.10
2019-04-12T17:10:13.395Z,8.10
2019-04-12T17:13:01.192Z,8.10
2019-04-12T17:15:48.825Z,8.00
2019-04-12T17:18:36.656Z,8.00
2019-04-12T17:21:24.511Z,7.90
2019-04-12T17:24:12.436Z,7.90
2019-04-12T17:27:00.297Z,7.70
2019-04-12T17:29:48.028Z,7.70
2019-04-12T17:32:35.731Z,7.60
2019-04-12T17:35:23.515Z,7.60
2019-04-12T17:38:11.404Z,7.50
2019-04-12T17:40:59.182Z,7.50
2019-04-12T17:43:47.083Z,7.50
2019-04-12T17:46:35.512Z,7.40
2019-04-12T17:49:32.937Z,7.40
2019-04-12T17:52:42.876Z,7.40
2019-04-12T17:55:35.675Z,7.40
2019-04-12T17:58:23.263Z,7.30
2019-04-12T18:01:29.734Z,7.30
2019-04-12T18:04:32.672Z,7.20
2019-04-12T18:07:20.491Z,7.20
2019-04-12T18:10:08.939Z,7.10
2019-04-12T18:12:56.900Z,7.10
2019-04-12T18:15:44.872Z,7.10
2019-04-12T18:18:32.699Z,7.00
2019-04-12T18:21:20.237Z,7.00
2019-04-12T18:24:07.852Z,7.00
2019-04-12T18:26:55.455Z,7.00
2019-04-12T18:29:43.080Z,6.90
2019-04-12T18:32:30.728Z,6.90
2019-04-12T18:35:18.273Z,6.80
2019-04-12T18:38:06.232Z,6.80
2019-04-12T18:40:53.664Z,6.80
2019-04-12T18:43:41.463Z,6.80
2019-04-12T18:46:28.774Z,6.70
2019-04-12T18:49:16.509Z,6.70
2019-04-12T18:52:04.802Z,6.70
2019-04-12T18:54:52.344Z,6.70
2019-04-12T18:57:40.599Z,6.70
2019-04-12T19:00:29.108Z,6.70
2019-04-12T19:03:16.880Z,6.70
2019-04-12T19:06:14.292Z,6.70
2019-04-12T19:08:54.337Z,6.60
2019-04-12T19:11:41.875Z,6.50
2019-04-12T19:14:29.652Z,6.50
2019-04-12T19:17:31.776Z,6.50
2019-04-12T19:20:21.073Z,6.40
2019-04-12T19:23:09.337Z,6.40
2019-04-12T19:25:57.211Z,6.40
2019-04-12T19:28:45.117Z,6.40
2019-04-12T19:32:07.106Z,6.40
2019-04-12T19:35:16.064Z,6.30
2019-04-12T19:38:11.209Z,6.40
2019-04-12T19:41:00.832Z,6.30
2019-04-12T19:43:48.741Z,6.30
2019-04-12T19:46:36.696Z,6.30
2019-04-12T19:49:24.471Z,6.20
2019-04-12T19:52:12.198Z,6.20
2019-04-12T19:54:59.857Z,6.20
2019-04-12T19:57:47.594Z,6.20
2019-04-12T20:00:35.508Z,6.20
2019-04-12T20:03:23.452Z,6.10
2019-04-12T20:06:14.738Z,6.10
2019-04-12T20:09:02.712Z,6.10
2019-04-12T20:11:50.735Z,6.10
2019-04-12T20:14:38.230Z,6.10
2019-04-12T20:17:26.330Z,6.00
2019-04-12T20:20:13.937Z,6.10
2019-04-12T20:23:01.704Z,6.10
2019-04-12T20:25:49.513Z,6.10
2019-04-12T20:28:37.334Z,6.10
2019-04-12T20:31:25.231Z,6.00
2019-04-12T20:34:12.812Z,6.00
2019-04-12T20:37:00.772Z,6.10
2019-04-12T20:39:48.455Z,6.00
2019-04-12T20:42:36.324Z,6.00
2019-04-12T20:45:24.211Z,6.00
2019-04-12T20:48:11.669Z,6.00
2019-04-12T20:50:59.470Z,6.00
2019-04-12T20:53:46.753Z,5.90
2019-04-12T20:56:34.411Z,5.90
2019-04-12T20:59:21.912Z,5.90
2019-04-12T21:02:09.755Z,5.90
2019-04-12T21:04:57.852Z,5.90
2019-04-12T21:07:45.642Z,5.90
2019-04-12T21:10:33.408Z,5.90
2019-04-12T21:13:21.488Z,5.90
2019-04-12T21:16:09.456Z,5.80
2019-04-12T21:18:57.253Z,5.70
2019-04-12T21:21:44.907Z,5.70
2019-04-12T21:24:32.580Z,5.70
2019-04-12T21:27:20.703Z,5.70
2019-04-12T21:30:08.996Z,5.70
2019-04-12T21:32:57.224Z,5.70
2019-04-12T21:35:45.164Z,5.70
2019-04-12T21:38:32.928Z,5.70
2019-04-12T21:41:20.820Z,5.70
2019-04-12T21:44:11.562Z,5.70
2019-04-12T21:46:58.072Z,5.60
2019-04-12T21:49:45.791Z,5.60
2019-04-12T21:52:33.850Z,5.60
2019-04-12T21:55:22.115Z,5.60
2019-04-12T21:58:09.734Z,5.60
2019-04-12T22:01:04.671Z,5.50
2019-04-12T22:03:52.820Z,5.50
2019-04-12T22:06:40.896Z,5.50
2019-04-12T22:09:28.793Z,5.50
2019-04-12T22:12:17.204Z,5.40
2019-04-12T22:15:05.463Z,5.30
2019-04-12T22:17:52.760Z,5.30
2019-04-12T22:20:40.375Z,5.30
2019-04-12T22:23:29.705Z,5.30
2019-04-12T22:26:17.131Z,5.20
2019-04-12T22:29:04.999Z,5.30
2019-04-12T22:31:59.062Z,5.20
2019-04-12T22:34:46.716Z,5.20
2019-04-12T22:37:34.116Z,5.20
2019-04-12T22:40:21.569Z,5.20
2019-04-12T22:43:09.708Z,5.20
2019-04-12T22:45:57.456Z,5.20
2019-04-12T22:48:45.228Z,5.10
2019-04-12T22:51:33.198Z,5.10
2019-04-12T22:54:20.582Z,5.10
2019-04-12T22:57:07.876Z,5.00
2019-04-12T22:59:55.489Z,5.00
2019-04-12T23:02:43.132Z,5.00
2019-04-12T23:05:31.714Z,5.00
2019-04-12T23:08:19.548Z,5.00
2019-04-12T23:11:06.824Z,4.90
2019-04-12T23:13:55.472Z,4.90
2019-04-12T23:16:43.140Z,4.90
2019-04-12T23:19:30.663Z,4.90
2019-04-12T23:22:18.348Z,4.80
2019-04-12T23:25:06.549Z,4.80
2019-04-12T23:27:54.643Z,4.80
2019-04-12T23:30:47.407Z,4.70
2019-04-12T23:33:48.634Z,4.70
2019-04-12T23:36:36.188Z,4.70
2019-04-12T23:39:23.455Z,4.60
2019-04-12T23:42:10.735Z,4.60
2019-04-12T23:44:58.653Z,4.60
2019-04-12T23:47:46.252Z,4.60
2019-04-12T23:50:33.988Z,4.60
2019-04-12T23:53:22.436Z,4.50
2019-04-12T23:56:10.989Z,4.50
2019-04-12T23:58:59.227Z,4.50
